createdAt,value
2018-03-21T00:01:15.422Z,26.17
2018-03-21T00:03:42.859Z,33.80
2018-03-21T00:06:10.408Z,34.22
2018-03-21T00:08:37.881Z,33.58
2018-03-21T00:11:05.349Z,36.15
2018-03-21T00:13:32.836Z,31.55
2018-03-21T00:16:00.281Z,34.42
2018-03-21T00:18:27.748Z,30.08
2018-03-21T00:20:55.197Z,36.10
2018-03-21T00:23:22.664Z,32.42
2018-03-21T00:25:50.110Z,29.25
2018-03-21T00:28:17.576Z,34.08
2018-03-21T00:30:45.031Z,35.47
2018-03-21T00:33:12.490Z,33.33
2018-03-21T00:35:39.953Z,31.42
2018-03-21T00:38:07.432Z,28.35
2018-03-21T00:40:35.679Z,28.92
2018-03-21T00:43:03.115Z,27.05
2018-03-21T00:45:30.572Z,27.50
2018-03-21T00:47:58.024Z,23.17
2018-03-21T00:50:25.484Z,26.30
2018-03-21T00:52:52.929Z,24.60
2018-03-21T00:55:20.388Z,26.67
2018-03-21T00:57:47.833Z,28.20
2018-03-21T01:00:15.300Z,24.30
2018-03-21T01:02:42.736Z,25.45
2018-03-21T01:05:10.229Z,31.05
2018-03-21T01:07:38.397Z,28.08
2018-03-21T01:10:05.846Z,26.17
2018-03-21T01:12:33.291Z,31.58
2018-03-21T01:15:00.739Z,26.50
2018-03-21T01:17:28.196Z,26.30
2018-03-21T01:19:55.640Z,26.37
2018-03-21T01:22:23.861Z,24.08
2018-03-21T01:24:51.308Z,26.65
2018-03-21T01:27:18.770Z,27.42
2018-03-21T01:29:46.209Z,25.92
2018-03-21T01:32:13.671Z,24.48
2018-03-21T01:34:41.134Z,23.60
2018-03-21T01:37:08.608Z,28.05
2018-03-21T01:39:36.086Z,24.73
2018-03-21T01:42:03.551Z,24.95
2018-03-21T01:44:31.036Z,25.60
2018-03-21T01:46:59.283Z,24.80
2018-03-21T01:49:26.752Z,27.60
2018-03-21T01:51:54.999Z,25.25
2018-03-21T01:54:22.471Z,26.42
2018-03-21T01:56:49.936Z,30.17
2018-03-21T01:59:17.404Z,28.75
2018-03-21T02:01:45.647Z,24.50
2018-03-21T02:04:13.097Z,25.12
2018-03-21T02:06:40.579Z,26.60
2018-03-21T02:09:08.041Z,23.73
2018-03-21T02:11:35.500Z,23.73
2018-03-21T02:14:02.968Z,24.23
2018-03-21T02:16:31.242Z,21.17
2018-03-21T02:18:58.668Z,21.77
2018-03-21T02:21:26.136Z,20.15
2018-03-21T02:23:53.598Z,28.92
2018-03-21T02:26:21.061Z,30.12
2018-03-21T02:28:48.529Z,32.10
2018-03-21T02:31:16.758Z,28.25
2018-03-21T02:33:44.212Z,27.33
2018-03-21T02:36:11.680Z,26.95
2018-03-21T02:38:39.152Z,24.55
2018-03-21T02:41:06.616Z,24.42
2018-03-21T02:43:34.096Z,26.77
2018-03-21T02:46:02.359Z,24.92
2018-03-21T02:48:29.824Z,25.00
2018-03-21T02:50:58.064Z,21.98
2018-03-21T02:53:25.540Z,22.65
2018-03-21T02:55:53.021Z,25.52
2018-03-21T02:58:21.272Z,28.05
2018-03-21T03:00:48.760Z,27.20
2018-03-21T03:03:16.988Z,24.08
2018-03-21T03:05:44.460Z,26.65
2018-03-21T03:08:11.920Z,27.08
2018-03-21T03:10:39.388Z,28.58
2018-03-21T03:13:06.840Z,29.52
2018-03-21T03:15:34.306Z,28.23
2018-03-21T03:18:01.748Z,27.90
2018-03-21T03:20:29.215Z,31.92
2018-03-21T03:22:56.663Z,32.38
2018-03-21T03:25:24.123Z,29.70
2018-03-21T03:27:51.572Z,28.92
2018-03-21T03:30:19.021Z,28.30
2018-03-21T03:32:46.464Z,27.48
2018-03-21T03:35:13.906Z,31.42
2018-03-21T03:37:41.372Z,27.27
2018-03-21T03:40:08.820Z,29.95
2018-03-21T03:42:37.048Z,30.20
2018-03-21T03:45:04.486Z,29.83
2018-03-21T03:47:31.974Z,27.42
2018-03-21T03:49:59.420Z,27.33
2018-03-21T03:52:26.879Z,24.90
2018-03-21T03:54:54.335Z,35.13
2018-03-21T03:57:21.795Z,38.78
2018-03-21T03:59:49.244Z,29.70
2018-03-21T04:02:16.708Z,30.08
2018-03-21T04:04:44.147Z,31.60
2018-03-21T04:07:11.611Z,29.50
2018-03-21T04:09:39.058Z,30.88
2018-03-21T04:12:06.764Z,26.02
2018-03-21T04:14:34.972Z,28.42
2018-03-21T04:17:02.439Z,31.08
2018-03-21T04:19:29.894Z,33.10
2018-03-21T04:21:57.341Z,30.60
2018-03-21T04:24:24.799Z,28.38
2018-03-21T04:26:52.235Z,24.87
2018-03-21T04:29:19.702Z,28.05
2018-03-21T04:31:47.143Z,29.15
2018-03-21T04:34:14.591Z,26.87
2018-03-21T04:36:42.807Z,32.00
2018-03-21T04:39:10.267Z,29.23
2018-03-21T04:41:37.699Z,32.08
2018-03-21T04:44:05.152Z,27.15
2018-03-21T04:46:32.604Z,27.77
2018-03-21T04:49:00.056Z,28.02
2018-03-21T04:51:27.496Z,27.60
2018-03-21T04:53:54.948Z,28.90
2018-03-21T04:56:22.393Z,27.80
2018-03-21T04:58:49.859Z,31.55
2018-03-21T05:01:17.303Z,29.37
2018-03-21T05:03:44.751Z,29.02
2018-03-21T05:06:12.208Z,29.45
2018-03-21T05:08:39.660Z,30.08
2018-03-21T05:11:07.117Z,29.52
2018-03-21T05:13:34.555Z,28.45
2018-03-21T05:16:02.013Z,33.45
2018-03-21T05:18:29.446Z,27.67
2018-03-21T05:20:56.902Z,30.48
2018-03-21T05:23:24.351Z,27.45
2018-03-21T05:25:52.572Z,29.40
2018-03-21T05:28:20.013Z,35.85
2018-03-21T05:30:47.469Z,32.40
2018-03-21T05:33:14.932Z,28.48
2018-03-21T05:35:42.380Z,27.90
2018-03-21T05:38:09.815Z,28.73
2018-03-21T05:40:37.270Z,29.73
2018-03-21T05:43:05.478Z,32.15
2018-03-21T05:45:32.934Z,31.35
2018-03-21T05:48:00.428Z,32.60
2018-03-21T05:50:27.844Z,34.28
2018-03-21T05:52:55.295Z,32.25
2018-03-21T05:55:23.555Z,28.67
2018-03-21T05:57:51.775Z,28.65
2018-03-21T06:00:19.226Z,29.10
2018-03-21T06:02:46.691Z,29.23
2018-03-21T06:05:14.143Z,29.83
2018-03-21T06:07:41.599Z,27.27
2018-03-21T06:10:09.065Z,28.90
2018-03-21T06:12:36.514Z,32.80
2018-03-21T06:15:03.972Z,41.70
2018-03-21T06:17:31.451Z,29.02
2018-03-21T06:19:58.907Z,30.02
2018-03-21T06:22:26.351Z,25.50
2018-03-21T06:24:53.795Z,29.02
2018-03-21T06:27:21.257Z,24.70
2018-03-21T06:29:48.746Z,20.75
2018-03-21T06:32:16.191Z,26.73
2018-03-21T06:34:43.657Z,26.37
2018-03-21T06:37:11.131Z,33.10
2018-03-21T06:39:39.360Z,26.37
2018-03-21T06:42:06.804Z,30.77
2018-03-21T06:44:34.267Z,28.95
2018-03-21T06:47:01.715Z,32.22
2018-03-21T06:49:29.173Z,25.02
2018-03-21T06:51:56.642Z,25.42
2018-03-21T06:54:24.119Z,25.40
2018-03-21T06:56:51.563Z,26.37
2018-03-21T06:59:19.028Z,28.62
2018-03-21T07:01:46.475Z,23.87
2018-03-21T07:04:13.939Z,24.52
2018-03-21T07:06:41.396Z,30.40
2018-03-21T07:09:08.869Z,28.42
2018-03-21T07:11:36.324Z,28.63
2018-03-21T07:14:15.539Z,26.40
2018-03-21T07:16:43.000Z,25.37
2018-03-21T07:19:10.447Z,25.03
2018-03-21T07:21:37.901Z,23.57
2018-03-21T07:24:05.357Z,24.17
2018-03-21T07:26:32.824Z,23.23
2018-03-21T07:29:00.269Z,25.25
2018-03-21T07:31:27.725Z,30.63
2018-03-21T07:33:55.183Z,26.42
2018-03-21T07:36:22.649Z,23.67
2018-03-21T07:38:50.102Z,29.45
2018-03-21T07:41:17.569Z,26.33
2018-03-21T07:43:45.016Z,24.30
2018-03-21T07:46:12.476Z,25.90
2018-03-21T07:48:39.930Z,27.30
2018-03-21T07:51:07.384Z,27.53
2018-03-21T07:53:34.841Z,26.83
2018-03-21T07:56:02.297Z,26.30
2018-03-21T07:58:29.741Z,24.33
2018-03-21T08:00:57.203Z,23.67
2018-03-21T08:03:24.648Z,24.87
2018-03-21T08:05:52.125Z,19.80
2018-03-21T08:08:19.579Z,22.00
2018-03-21T08:10:47.003Z,21.80
2018-03-21T08:13:15.224Z,21.37
2018-03-21T08:15:42.661Z,16.47
2018-03-21T08:18:10.116Z,19.77
2018-03-21T08:20:37.563Z,21.77
2018-03-21T08:23:05.026Z,15.40
2018-03-21T08:25:32.476Z,12.03
2018-03-21T08:27:59.953Z,14.60
2018-03-21T08:30:28.132Z,14.33
2018-03-21T08:32:55.595Z,12.30
2018-03-21T08:35:23.040Z,9.77
2018-03-21T08:37:50.489Z,12.03
2018-03-21T08:40:17.933Z,6.40
2018-03-21T08:42:45.376Z,7.03
2018-03-21T08:45:12.808Z,2.63
2018-03-21T08:47:40.268Z,4.00
2018-03-21T08:50:07.707Z,5.60
2018-03-21T08:52:35.159Z,3.27
2018-03-21T08:55:02.599Z,2.73
2018-03-21T08:57:30.050Z,3.67
2018-03-21T08:59:57.513Z,2.00
2018-03-21T09:02:24.959Z,2.90
2018-03-21T09:04:52.404Z,1.97
2018-03-21T09:07:19.846Z,6.60
2018-03-21T09:09:47.299Z,2.20
2018-03-21T09:12:15.501Z,3.67
2018-03-21T09:14:42.952Z,3.50
2018-03-21T09:17:10.387Z,3.43
2018-03-21T09:19:37.830Z,4.45
2018-03-21T09:22:06.042Z,3.47
2018-03-21T09:24:33.491Z,2.95
2018-03-21T09:27:00.931Z,2.60
2018-03-21T09:29:29.137Z,4.77
2018-03-21T09:31:56.602Z,4.67
2018-03-21T09:34:24.052Z,3.67
2018-03-21T09:36:51.484Z,2.03
2018-03-21T09:39:19.700Z,5.43
2018-03-21T09:41:47.139Z,2.40
2018-03-21T09:44:14.598Z,3.37
2018-03-21T09:46:42.024Z,1.97
2018-03-21T09:49:10.235Z,2.63
2018-03-21T09:51:37.688Z,2.80
2018-03-21T09:54:05.107Z,2.70
2018-03-21T09:56:33.323Z,2.70
2018-03-21T09:59:00.773Z,2.83
2018-03-21T10:01:28.220Z,1.80
2018-03-21T10:03:55.655Z,1.73
2018-03-21T10:06:23.874Z,4.13
2018-03-21T10:08:51.313Z,2.03
2018-03-21T10:11:18.770Z,3.20
2018-03-21T10:13:46.203Z,4.90
2018-03-21T10:16:14.423Z,2.77
2018-03-21T10:18:41.863Z,1.97
2018-03-21T10:21:09.344Z,4.90
2018-03-21T10:23:36.776Z,5.97
2018-03-21T10:26:04.232Z,3.43
2018-03-21T10:28:31.667Z,3.70
2018-03-21T10:30:59.106Z,3.30
2018-03-21T10:33:26.556Z,2.07
2018-03-21T10:35:53.992Z,1.70
2018-03-21T10:38:21.439Z,2.70
2018-03-21T10:40:48.896Z,3.60
2018-03-21T10:43:16.352Z,3.70
2018-03-21T10:45:43.808Z,2.43
2018-03-21T10:48:11.255Z,3.50
2018-03-21T10:50:38.697Z,1.40
2018-03-21T10:53:06.159Z,3.47
2018-03-21T10:55:33.588Z,1.13
2018-03-21T10:58:01.031Z,2.90
2018-03-21T11:00:28.475Z,1.70
2018-03-21T11:03:01.873Z,1.30
2018-03-21T11:05:29.324Z,4.00
2018-03-21T11:07:56.777Z,2.43
2018-03-21T11:10:24.217Z,2.70
2018-03-21T11:12:51.699Z,3.50
2018-03-21T11:15:19.135Z,3.30
2018-03-21T11:17:46.580Z,2.10
2018-03-21T11:20:14.023Z,1.03
2018-03-21T11:22:41.471Z,1.70
2018-03-21T11:25:08.934Z,5.30
2018-03-21T11:27:36.367Z,3.80
2018-03-21T11:30:04.584Z,0.90
2018-03-21T11:32:32.794Z,2.43
2018-03-21T11:35:00.249Z,3.70
2018-03-21T11:37:27.684Z,1.10
2018-03-21T11:39:55.129Z,1.20
2018-03-21T11:42:22.564Z,2.23
2018-03-21T11:44:50.017Z,1.90
2018-03-21T11:47:17.447Z,0.67
2018-03-21T11:49:45.656Z,2.47
2018-03-21T11:52:13.101Z,2.63
2018-03-21T11:54:41.307Z,4.43
2018-03-21T11:57:08.749Z,0.90
2018-03-21T11:59:36.199Z,1.37
2018-03-21T12:02:03.628Z,1.83
2018-03-21T12:04:31.863Z,1.00
2018-03-21T12:06:59.308Z,1.23
2018-03-21T12:09:26.743Z,3.70
2018-03-21T12:11:54.196Z,1.27
2018-03-21T12:14:21.620Z,0.63
2018-03-21T12:16:49.065Z,1.20
2018-03-21T12:19:16.512Z,0.70
2018-03-21T12:21:43.947Z,1.13
2018-03-21T12:24:12.151Z,4.80
2018-03-21T12:26:39.596Z,1.93
2018-03-21T12:29:07.031Z,4.37
2018-03-21T12:31:34.471Z,2.00
2018-03-21T12:34:01.912Z,0.80
2018-03-21T12:36:30.119Z,2.03
2018-03-21T12:38:57.552Z,1.80
2018-03-21T12:41:24.996Z,0.80
2018-03-21T12:43:53.206Z,1.10
2018-03-21T12:46:20.656Z,1.83
2018-03-21T12:48:48.101Z,1.80
2018-03-21T12:51:15.532Z,6.37
2018-03-21T12:53:43.748Z,2.37
2018-03-21T12:56:11.921Z,2.87
2018-03-21T12:58:40.089Z,1.40
2018-03-21T13:01:07.534Z,4.43
2018-03-21T13:03:34.991Z,1.07
2018-03-21T13:06:02.424Z,2.57
2018-03-21T13:08:29.881Z,1.37
2018-03-21T13:10:57.312Z,1.93
2018-03-21T13:13:24.769Z,1.20
2018-03-21T13:15:52.207Z,1.20
2018-03-21T13:18:19.653Z,1.67
2018-03-21T13:20:47.093Z,2.83
2018-03-21T13:23:14.548Z,1.23
2018-03-21T13:25:42.000Z,2.73
2018-03-21T13:28:10.223Z,4.40
2018-03-21T13:30:37.656Z,3.30
2018-03-21T13:33:05.092Z,2.47
2018-03-21T13:35:32.547Z,3.30
2018-03-21T13:37:59.988Z,2.43
2018-03-21T13:40:28.207Z,4.33
2018-03-21T13:42:55.652Z,2.73
2018-03-21T13:45:23.096Z,1.97
2018-03-21T13:47:50.546Z,1.77
2018-03-21T13:50:18.009Z,2.67
2018-03-21T13:52:46.194Z,1.73
2018-03-21T13:55:13.639Z,2.93
2018-03-21T13:57:41.074Z,1.40
2018-03-21T14:00:08.521Z,2.80
2018-03-21T14:02:35.947Z,1.87
2018-03-21T14:05:03.399Z,4.10
2018-03-21T14:07:30.838Z,3.37
2018-03-21T14:09:58.284Z,3.13
2018-03-21T14:12:25.728Z,1.30
2018-03-21T14:14:53.948Z,1.20
2018-03-21T14:17:21.384Z,2.93
2018-03-21T14:19:48.814Z,3.97
2018-03-21T14:22:17.093Z,1.83
2018-03-21T14:24:44.464Z,1.60
2018-03-21T14:27:11.913Z,2.03
2018-03-21T14:29:39.347Z,2.03
2018-03-21T14:32:06.792Z,4.60
2018-03-21T14:34:34.223Z,4.63
2018-03-21T14:37:01.689Z,2.03
2018-03-21T14:39:29.118Z,1.93
2018-03-21T14:41:56.563Z,1.63
2018-03-21T14:44:24.005Z,2.13
2018-03-21T14:46:52.214Z,3.13
2018-03-21T14:49:19.655Z,3.83
2018-03-21T14:51:47.100Z,3.63
2018-03-21T14:54:14.544Z,9.10
2018-03-21T14:56:42.750Z,3.23
2018-03-21T14:59:10.189Z,5.27
2018-03-21T15:01:37.644Z,3.63
2018-03-21T15:04:05.090Z,2.57
2018-03-21T15:06:33.297Z,3.87
2018-03-21T15:09:00.763Z,1.83
2018-03-21T15:11:28.196Z,3.30
2018-03-21T15:13:55.646Z,1.90
2018-03-21T15:16:23.085Z,1.90
2018-03-21T15:18:50.537Z,2.07
2018-03-21T15:21:17.980Z,3.60
2018-03-21T15:23:45.423Z,5.57
2018-03-21T15:26:12.851Z,2.73
2018-03-21T15:28:40.293Z,1.93
2018-03-21T15:31:07.732Z,2.97
2018-03-21T15:33:35.939Z,1.73
2018-03-21T15:36:03.380Z,2.97
2018-03-21T15:38:30.832Z,2.97
2018-03-21T15:40:59.035Z,2.90
2018-03-21T15:43:26.487Z,2.83
2018-03-21T15:45:53.971Z,2.10
2018-03-21T15:48:21.390Z,2.80
2018-03-21T15:50:48.836Z,6.60
2018-03-21T15:53:16.291Z,2.97
2018-03-21T15:55:44.490Z,3.50
2018-03-21T15:58:11.959Z,2.23
2018-03-21T16:00:39.396Z,1.93
2018-03-21T16:03:06.847Z,3.03
2018-03-21T16:05:34.292Z,3.80
2018-03-21T16:08:02.504Z,2.63
2018-03-21T16:10:29.952Z,4.20
2018-03-21T16:12:57.395Z,2.03
2018-03-21T16:15:24.833Z,4.07
2018-03-21T16:17:53.081Z,3.53
2018-03-21T16:20:20.565Z,5.40
2018-03-21T16:22:48.783Z,3.03
2018-03-21T16:25:16.242Z,2.67
2018-03-21T16:27:43.676Z,4.93
2018-03-21T16:30:11.138Z,2.60
2018-03-21T16:32:38.579Z,3.23
2018-03-21T16:35:06.032Z,3.30
2018-03-21T16:37:34.228Z,2.80
2018-03-21T16:40:01.681Z,3.83
2018-03-21T16:42:29.108Z,2.20
2018-03-21T16:44:56.556Z,3.27
2018-03-21T16:47:23.991Z,2.93
2018-03-21T16:49:51.450Z,5.97
2018-03-21T16:52:18.882Z,4.10
2018-03-21T16:54:46.316Z,2.90
2018-03-21T16:57:13.764Z,3.40
2018-03-21T16:59:41.200Z,1.90
2018-03-21T17:02:09.416Z,3.57
2018-03-21T17:04:36.856Z,5.07
2018-03-21T17:07:04.297Z,5.07
2018-03-21T17:09:31.742Z,2.40
2018-03-21T17:11:59.198Z,5.47
2018-03-21T17:14:26.648Z,2.93
2018-03-21T17:16:54.087Z,4.77
2018-03-21T17:19:21.515Z,2.77
2018-03-21T17:21:48.952Z,5.27
2018-03-21T17:24:16.399Z,3.67
2018-03-21T17:26:44.607Z,3.57
2018-03-21T17:29:12.043Z,5.83
2018-03-21T17:31:39.508Z,4.77
2018-03-21T17:34:06.960Z,4.70
2018-03-21T17:36:34.399Z,4.27
2018-03-21T17:39:02.620Z,4.43
2018-03-21T17:41:30.052Z,4.20
2018-03-21T17:44:03.217Z,4.67
2018-03-21T17:46:31.407Z,3.57
2018-03-21T17:48:58.901Z,8.43
2018-03-21T17:51:27.053Z,5.13
2018-03-21T17:53:54.499Z,7.03
2018-03-21T17:56:21.929Z,5.53
2018-03-21T17:58:50.388Z,6.53
2018-03-21T18:01:18.648Z,8.43
2018-03-21T18:03:46.106Z,9.00
2018-03-21T18:06:13.564Z,7.13
2018-03-21T18:08:41.029Z,6.17
2018-03-21T18:11:08.488Z,5.97
2018-03-21T18:13:35.945Z,8.13
2018-03-21T18:16:03.410Z,5.77
2018-03-21T18:18:30.892Z,6.80
2018-03-21T18:20:59.110Z,5.57
2018-03-21T18:23:26.563Z,5.72
2018-03-21T18:25:54.011Z,7.62
2018-03-21T18:28:21.476Z,9.10
2018-03-21T18:30:48.915Z,7.65
2018-03-21T18:33:16.394Z,12.02
2018-03-21T18:35:44.580Z,8.93
2018-03-21T18:38:12.016Z,8.38
2018-03-21T18:40:39.471Z,13.02
2018-03-21T18:43:06.915Z,8.77
2018-03-21T18:45:34.371Z,7.95
2018-03-21T18:48:01.844Z,11.20
2018-03-21T18:50:29.283Z,8.95
2018-03-21T18:52:56.737Z,11.15
2018-03-21T18:55:24.196Z,5.07
2018-03-21T18:57:51.653Z,8.35
2018-03-21T19:00:19.122Z,6.12
2018-03-21T19:02:46.572Z,7.57
2018-03-21T19:05:14.020Z,7.45
2018-03-21T19:07:41.475Z,6.30
2018-03-21T19:10:09.700Z,6.55
2018-03-21T19:12:37.144Z,9.50
2018-03-21T19:15:04.592Z,7.30
2018-03-21T19:17:32.053Z,8.32
2018-03-21T19:19:59.505Z,6.00
2018-03-21T19:22:26.968Z,4.72
2018-03-21T19:24:54.410Z,5.50
2018-03-21T19:27:21.859Z,7.78
2018-03-21T19:29:49.315Z,6.05
2018-03-21T19:32:17.527Z,11.82
2018-03-21T19:34:44.971Z,7.15
2018-03-21T19:37:12.431Z,12.18
2018-03-21T19:39:39.903Z,12.57
2018-03-21T19:42:07.343Z,15.27
2018-03-21T19:44:34.788Z,10.43
2018-03-21T19:47:02.266Z,10.98
2018-03-21T19:49:29.682Z,9.93
2018-03-21T19:51:57.148Z,10.00
2018-03-21T19:54:24.591Z,8.88
2018-03-21T19:56:52.804Z,7.75
2018-03-21T19:59:20.276Z,6.93
2018-03-21T20:01:47.728Z,6.47
2018-03-21T20:04:15.185Z,9.10
2018-03-21T20:06:42.624Z,7.47
2018-03-21T20:09:10.068Z,7.07
2018-03-21T20:11:37.507Z,5.18
2018-03-21T20:14:04.964Z,7.10
2018-03-21T20:16:33.173Z,5.15
2018-03-21T20:19:00.625Z,4.93
2018-03-21T20:21:28.063Z,7.97
2018-03-21T20:23:55.512Z,5.35
2018-03-21T20:26:22.947Z,6.12
2018-03-21T20:28:50.393Z,5.93
2018-03-21T20:31:17.836Z,5.80
2018-03-21T20:33:45.303Z,5.65
2018-03-21T20:36:12.735Z,7.70
2018-03-21T20:38:40.186Z,5.45
2018-03-21T20:41:07.653Z,4.53
2018-03-21T20:43:35.112Z,5.45
2018-03-21T20:46:02.553Z,5.10
2018-03-21T20:48:30.009Z,7.22
2018-03-21T20:50:57.464Z,4.85
2018-03-21T20:53:24.891Z,6.70
2018-03-21T20:55:53.113Z,6.25
2018-03-21T20:58:20.561Z,6.87
2018-03-21T21:00:48.767Z,4.87
2018-03-21T21:03:16.224Z,6.43
2018-03-21T21:05:43.668Z,6.43
2018-03-21T21:08:11.116Z,4.35
2018-03-21T21:10:38.572Z,4.72
2018-03-21T21:13:06.014Z,5.75
2018-03-21T21:15:33.460Z,6.12
2018-03-21T21:18:00.891Z,6.05
2018-03-21T21:20:28.345Z,4.35
2018-03-21T21:22:55.779Z,3.22
2018-03-21T21:25:23.227Z,5.25
2018-03-21T21:27:50.673Z,3.30
2018-03-21T21:30:18.103Z,7.28
2018-03-21T21:32:45.551Z,4.22
2018-03-21T21:35:12.997Z,4.78
2018-03-21T21:37:41.215Z,4.35
2018-03-21T21:40:08.648Z,5.55
2018-03-21T21:42:36.091Z,6.03
2018-03-21T21:45:04.351Z,6.75
2018-03-21T21:47:31.760Z,7.18
2018-03-21T21:49:59.216Z,4.80
2018-03-21T21:52:26.677Z,5.85
2018-03-21T21:54:54.876Z,5.87
2018-03-21T21:57:22.353Z,4.03
2018-03-21T21:59:49.797Z,5.80
2018-03-21T22:02:17.236Z,5.30
2018-03-21T22:04:44.693Z,4.57
2018-03-21T22:07:12.148Z,8.30
2018-03-21T22:09:39.588Z,6.47
2018-03-21T22:12:12.744Z,5.95
2018-03-21T22:14:40.176Z,7.85
2018-03-21T22:17:07.616Z,5.50
2018-03-21T22:19:35.065Z,8.52
2018-03-21T22:22:02.508Z,7.03
2018-03-21T22:24:29.965Z,6.70
2018-03-21T22:26:57.391Z,7.78
2018-03-21T22:29:24.849Z,10.35
2018-03-21T22:31:52.271Z,10.23
2018-03-21T22:34:19.736Z,10.65
2018-03-21T22:36:47.179Z,10.18
2018-03-21T22:39:14.631Z,8.65
2018-03-21T22:41:42.077Z,8.98
2018-03-21T22:44:09.527Z,7.87
2018-03-21T22:46:36.971Z,9.02
2018-03-21T22:49:04.427Z,10.10
2018-03-21T22:51:31.859Z,8.60
2018-03-21T22:54:00.083Z,10.90
2018-03-21T22:56:27.519Z,6.90
2018-03-21T22:58:54.975Z,9.82
2018-03-21T23:01:22.416Z,8.93
2018-03-21T23:03:49.859Z,8.00
2018-03-21T23:06:18.083Z,8.80
2018-03-21T23:08:45.539Z,10.63
2018-03-21T23:11:12.976Z,10.10
2018-03-21T23:13:40.404Z,9.00
2018-03-21T23:16:08.624Z,8.50
2018-03-21T23:18:36.089Z,10.73
2018-03-21T23:21:03.539Z,7.75
2018-03-21T23:23:30.975Z,7.15
2018-03-21T23:25:58.411Z,6.00
2018-03-21T23:28:26.623Z,7.35
2018-03-21T23:30:54.082Z,7.07
2018-03-21T23:33:21.525Z,7.90
2018-03-21T23:35:48.975Z,7.95
2018-03-21T23:38:16.417Z,6.90
2018-03-21T23:40:44.637Z,10.05
2018-03-21T23:43:12.078Z,6.00
2018-03-21T23:45:39.531Z,6.90
2018-03-21T23:48:06.960Z,5.22
2018-03-21T23:50:35.184Z,5.57
2018-03-21T23:53:02.629Z,5.05
2018-03-21T23:55:30.081Z,5.43
2018-03-21T23:57:57.542Z,6.00
